Time;durP1;ratioP1;P1;durP2;ratioP2;P2;SDS_P1;SDS_P2;PMS_P1;PMS_P2;Temp;Humidity;BMP_temperature;BMP_pressure;BME280_temperature;BME280_humidity;BME280_pressure;Samples;Min_cycle;Max_cycle;Signal;HPM_P1;HPM_P2
2022/08/29 00:01:46;;;;;;;4.10;1.80;;;;;;;;;;5033821;28;20049;-77
2022/08/29 00:04:13;;;;;;;4.07;2.00;;;;;;;;;;5033838;28;20053;-78
2022/08/29 00:06:40;;;;;;;4.03;2.08;;;;;;;;;;5033674;28;20045;-78
2022/08/29 00:09:06;;;;;;;3.00;2.08;;;;;;;;;;5033687;28;20088;-78
2022/08/29 00:11:33;;;;;;;3.60;1.83;;;;;;;;;;5033628;28;20077;-77
2022/08/29 00:13:59;;;;;;;4.57;1.42;;;;;;;;;;5033252;28;20559;-77
2022/08/29 00:16:26;;;;;;;3.90;1.70;;;;;;;;;;5032312;28;20041;-77
2022/08/29 00:18:52;;;;;;;3.03;1.83;;;;;;;;;;5033440;28;20162;-77
2022/08/29 00:21:19;;;;;;;2.83;1.65;;;;;;;;;;5033141;28;20085;-77
2022/08/29 00:23:46;;;;;;;2.70;1.65;;;;;;;;;;5033235;28;20076;-77
2022/08/29 00:26:12;;;;;;;3.08;1.60;;;;;;;;;;5033021;28;20528;-77
2022/08/29 00:28:38;;;;;;;2.83;1.80;;;;;;;;;;5033099;28;20080;-77
2022/08/29 00:31:05;;;;;;;1.92;1.55;;;;;;;;;;5033190;28;20464;-77
2022/08/29 00:33:32;;;;;;;2.65;1.60;;;;;;;;;;5032848;28;20077;-78
2022/08/29 00:35:59;;;;;;;1.77;1.33;;;;;;;;;;5033353;28;20053;-78
2022/08/29 00:38:26;;;;;;;1.90;1.40;;;;;;;;;;5032741;28;20056;-78
2022/08/29 00:40:54;;;;;;;2.45;1.20;;;;;;;;;;5033073;28;20081;-78
2022/08/29 00:43:21;;;;;;;;;;;;;;;;;;5033209;28;20418;-77
2022/08/29 00:46:06;;;;;;;2.77;1.87;;;;;;;;;;5033041;28;19925;-77
2022/08/29 00:48:34;;;;;;;3.85;1.63;;;;;;;;;;5032661;28;20128;-77
2022/08/29 00:51:01;;;;;;;;;;;;;;;;;;5033331;28;20089;-77
2022/08/29 00:53:32;;;;;;;3.65;1.50;;;;;;;;;;5032476;28;19921;-77
2022/08/29 00:55:59;;;;;;;2.00;1.38;;;;;;;;;;5032506;28;20139;-77
2022/08/29 00:58:34;;;;;;;3.28;1.35;;;;;;;;;;5032626;28;20045;-77
2022/08/29 01:01:00;;;;;;;2.83;1.30;;;;;;;;;;5031412;28;20099;-77
2022/08/29 01:03:29;;;;;;;2.47;1.20;;;;;;;;;;5032442;28;20056;-77
2022/08/29 01:05:56;;;;;;;1.40;1.00;;;;;;;;;;5032482;28;20286;-77
2022/08/29 01:08:23;;;;;;;4.53;1.45;;;;;;;;;;5032441;28;20618;-77
2022/08/29 01:13:37;;;;;;;1.88;1.25;;;;;;;;;;5032169;28;20528;-78
2022/08/29 01:16:05;;;;;;;5.30;1.27;;;;;;;;;;5032405;28;20053;-78
2022/08/29 01:18:34;;;;;;;2.33;1.30;;;;;;;;;;5031694;28;20103;-77
2022/08/29 01:21:09;;;;;;;2.05;1.20;;;;;;;;;;5032070;28;20057;-77
2022/08/29 01:23:48;;;;;;;3.28;1.40;;;;;;;;;;5032161;28;20468;-77
2022/08/29 01:26:14;;;;;;;3.53;1.40;;;;;;;;;;5031196;28;20056;-77
2022/08/29 01:28:43;;;;;;;3.03;1.20;;;;;;;;;;5031994;28;20049;-77
2022/08/29 01:31:11;;;;;;;1.42;1.30;;;;;;;;;;5031879;28;20557;-77
2022/08/29 01:33:37;;;;;;;2.78;1.40;;;;;;;;;;5032109;28;20042;-77
2022/08/29 01:36:05;;;;;;;2.72;1.40;;;;;;;;;;5032180;28;20049;-77
2022/08/29 01:38:31;;;;;;;;;;;;;;;;;;5032441;28;20045;-77
2022/08/29 01:40:58;;;;;;;1.73;1.40;;;;;;;;;;5031988;28;19932;-77
2022/08/29 01:43:25;;;;;;;2.50;1.50;;;;;;;;;;5031692;28;20486;-77
2022/08/29 01:45:52;;;;;;;;;;;;;;;;;;5032426;28;20053;-77
2022/08/29 01:48:18;;;;;;;1.98;1.40;;;;;;;;;;5031850;28;19925;-77
2022/08/29 01:50:45;;;;;;;1.73;1.40;;;;;;;;;;5031969;28;20077;-77
2022/08/29 01:53:12;;;;;;;4.43;1.23;;;;;;;;;;5031995;28;20045;-77
2022/08/29 01:55:39;;;;;;;2.85;1.27;;;;;;;;;;5031504;28;20056;-77
2022/08/29 01:58:06;;;;;;;3.30;1.40;;;;;;;;;;5030819;28;20053;-77
2022/08/29 02:00:33;;;;;;;4.47;1.40;;;;;;;;;;5031312;28;20049;-77
2022/08/29 02:03:00;;;;;;;1.38;1.20;;;;;;;;;;5031796;28;20077;-77
2022/08/29 02:05:27;;;;;;;;;;;;;;;;;;5032108;28;20077;-77
2022/08/29 02:07:53;;;;;;;2.20;1.40;;;;;;;;;;5031539;28;19921;-77
2022/08/29 02:10:20;;;;;;;2.08;1.20;;;;;;;;;;5031787;28;20050;-77
2022/08/29 02:12:47;;;;;;;1.30;1.10;;;;;;;;;;5031340;28;20639;-77
2022/08/29 02:15:14;;;;;;;3.03;1.38;;;;;;;;;;5031224;28;20336;-77
2022/08/29 02:17:41;;;;;;;1.58;1.40;;;;;;;;;;5031371;28;20559;-77
2022/08/29 02:20:08;;;;;;;3.25;1.40;;;;;;;;;;5031503;28;20453;-77
2022/08/29 02:22:35;;;;;;;1.70;1.27;;;;;;;;;;5031309;28;20054;-77
2022/08/29 02:25:39;;;;;;;3.38;1.58;;;;;;;;;;5031207;28;20755;-77
2022/08/29 02:27:51;;;;;;;;;;;;;;;;;;5031659;28;20583;-77
2022/08/29 02:30:21;;;;;;;2.13;1.48;;;;;;;;;;5031491;28;19924;-77
2022/08/29 02:32:47;;;;;;;2.10;1.10;;;;;;;;;;5034810;28;20555;-77
2022/08/29 02:35:14;;;;;;;1.90;1.23;;;;;;;;;;5035464;28;20103;-76
2022/08/29 02:37:42;;;;;;;1.88;1.25;;;;;;;;;;5034008;28;20043;-77
2022/08/29 02:40:08;;;;;;;1.20;1.15;;;;;;;;;;5035079;28;20045;-77
2022/08/29 02:42:35;;;;;;;2.40;1.25;;;;;;;;;;5035308;28;20128;-77
2022/08/29 02:45:02;;;;;;;2.03;1.50;;;;;;;;;;5035270;28;20057;-77
2022/08/29 02:47:28;;;;;;;1.67;1.15;;;;;;;;;;5034965;28;20485;-77
2022/08/29 02:49:55;;;;;;;3.63;1.60;;;;;;;;;;5034814;28;20501;-77
2022/08/29 02:52:21;;;;;;;2.40;1.40;;;;;;;;;;5034845;28;20104;-77
2022/08/29 02:54:48;;;;;;;1.30;1.00;;;;;;;;;;5034924;28;20081;-77
2022/08/29 02:57:14;;;;;;;2.15;1.50;;;;;;;;;;5035031;28;20099;-77
2022/08/29 02:59:41;;;;;;;1.75;1.10;;;;;;;;;;5034891;28;20081;-77
2022/08/29 03:02:07;;;;;;;3.88;1.38;;;;;;;;;;5033598;28;20104;-77
2022/08/29 03:04:34;;;;;;;2.70;1.30;;;;;;;;;;5034542;28;20132;-77
2022/08/29 03:07:00;;;;;;;1.65;1.23;;;;;;;;;;5034576;28;20560;-77
2022/08/29 03:09:27;;;;;;;2.65;1.40;;;;;;;;;;5034737;28;20417;-77
2022/08/29 03:11:55;;;;;;;2.72;1.17;;;;;;;;;;5034792;28;20450;-77
2022/08/29 03:14:22;;;;;;;1.48;1.38;;;;;;;;;;5034630;28;20477;-77
2022/08/29 03:16:49;;;;;;;;;;;;;;;;;;5035107;28;20077;-77
2022/08/29 03:19:15;;;;;;;5.38;1.42;;;;;;;;;;5034675;28;19921;-77
2022/08/29 03:21:43;;;;;;;1.42;1.33;;;;;;;;;;5034308;28;20053;-77
2022/08/29 03:24:09;;;;;;;2.67;1.60;;;;;;;;;;5034501;28;20444;-77
2022/08/29 03:26:36;;;;;;;4.00;1.77;;;;;;;;;;5034361;28;20088;-77
2022/08/29 03:29:02;;;;;;;2.33;1.55;;;;;;;;;;5034405;28;20049;-77
2022/08/29 03:31:29;;;;;;;3.50;1.55;;;;;;;;;;5034220;28;20486;-77
2022/08/29 03:33:55;;;;;;;3.78;1.60;;;;;;;;;;5034281;28;20044;-77
2022/08/29 03:36:23;;;;;;;3.33;1.67;;;;;;;;;;5034408;28;20395;-77
2022/08/29 03:38:50;;;;;;;3.03;1.55;;;;;;;;;;5032631;28;20065;-77
2022/08/29 03:41:24;;;;;;;3.27;1.50;;;;;;;;;;5033822;28;20049;-77
2022/08/29 03:43:51;;;;;;;5.88;2.00;;;;;;;;;;5034081;28;20060;-77
2022/08/29 03:46:18;;;;;;;2.80;1.58;;;;;;;;;;5034112;28;20104;-77
2022/08/29 03:48:44;;;;;;;2.17;1.33;;;;;;;;;;5034250;28;20049;-77
2022/08/29 03:51:11;;;;;;;3.40;1.80;;;;;;;;;;5034060;28;20081;-77
2022/08/29 03:53:38;;;;;;;3.20;1.60;;;;;;;;;;5032840;28;20187;-77
2022/08/29 03:56:05;;;;;;;;;;;;;;;;;;5034083;28;20547;-77
2022/08/29 03:58:32;;;;;;;1.77;1.45;;;;;;;;;;5032550;28;19986;-77
2022/08/29 04:00:59;;;;;;;4.07;1.80;;;;;;;;;;5033444;28;20077;-77
2022/08/29 04:03:26;;;;;;;4.90;2.00;;;;;;;;;;5033863;28;20053;-77
2022/08/29 04:05:57;;;;;;;3.42;1.58;;;;;;;;;;5033964;28;20049;-77
2022/08/29 04:08:23;;;;;;;2.90;1.35;;;;;;;;;;5033699;28;20081;-77
2022/08/29 04:10:50;;;;;;;4.82;1.88;;;;;;;;;;5033735;28;20041;-77
2022/08/29 04:13:16;;;;;;;2.95;1.55;;;;;;;;;;5033460;28;20111;-77
2022/08/29 04:15:43;;;;;;;5.13;1.70;;;;;;;;;;5033357;28;20056;-77
2022/08/29 04:18:09;;;;;;;3.40;1.63;;;;;;;;;;5033588;28;20555;-77
2022/08/29 04:20:37;;;;;;;1.80;1.60;;;;;;;;;;5033199;28;20068;-77
2022/08/29 04:23:04;;;;;;;3.00;1.92;;;;;;;;;;5033461;28;20049;-77
2022/08/29 04:25:35;;;;;;;2.80;1.67;;;;;;;;;;5033404;28;20053;-77
2022/08/29 04:28:07;;;;;;;3.28;1.63;;;;;;;;;;5033236;28;20064;-77
2022/08/29 04:30:35;;;;;;;2.35;1.80;;;;;;;;;;5033005;28;20046;-77
2022/08/29 04:33:01;;;;;;;3.88;1.90;;;;;;;;;;5032984;28;20092;-77
2022/08/29 04:35:28;;;;;;;3.33;1.52;;;;;;;;;;5032862;28;20085;-77
2022/08/29 04:37:54;;;;;;;3.55;1.88;;;;;;;;;;5033224;28;20085;-77
2022/08/29 04:40:21;;;;;;;4.17;1.70;;;;;;;;;;5032773;28;20085;-77
2022/08/29 04:42:48;;;;;;;2.78;1.80;;;;;;;;;;5033198;28;20045;-77
2022/08/29 04:45:16;;;;;;;4.83;2.20;;;;;;;;;;5033020;28;20053;-77
2022/08/29 04:47:43;;;;;;;2.88;2.03;;;;;;;;;;5032958;28;20286;-77
2022/08/29 04:50:11;;;;;;;5.82;1.77;;;;;;;;;;5032767;28;20057;-77
2022/08/29 04:52:38;;;;;;;3.47;2.30;;;;;;;;;;5032646;28;20084;-77
2022/08/29 04:55:05;;;;;;;3.53;1.97;;;;;;;;;;5032056;28;20081;-77
2022/08/29 04:57:33;;;;;;;3.17;2.00;;;;;;;;;;5032477;28;20049;-77
2022/08/29 04:59:59;;;;;;;2.83;1.92;;;;;;;;;;5031236;28;20069;-77
2022/08/29 05:02:26;;;;;;;5.22;1.90;;;;;;;;;;5032531;28;20060;-78
2022/08/29 05:04:55;;;;;;;2.72;1.77;;;;;;;;;;5032691;28;20056;-77
2022/08/29 05:07:25;;;;;;;2.38;1.65;;;;;;;;;;5032555;28;20061;-77
2022/08/29 05:09:57;;;;;;;4.93;1.98;;;;;;;;;;5032538;28;20057;-77
2022/08/29 05:12:24;;;;;;;3.15;2.25;;;;;;;;;;5031004;28;20509;-77
2022/08/29 05:14:52;;;;;;;5.35;2.00;;;;;;;;;;5032250;28;20096;-77
2022/08/29 05:17:18;;;;;;;3.70;2.35;;;;;;;;;;5032426;28;20041;-77
2022/08/29 05:19:45;;;;;;;2.72;1.83;;;;;;;;;;5032114;28;20088;-77
2022/08/29 05:22:12;;;;;;;4.63;2.00;;;;;;;;;;5032029;28;20083;-77
2022/08/29 05:24:39;;;;;;;2.03;1.70;;;;;;;;;;5032288;28;20057;-77
2022/08/29 05:27:10;;;;;;;3.95;1.88;;;;;;;;;;5032268;28;20053;-77
2022/08/29 05:29:41;;;;;;;3.63;2.03;;;;;;;;;;5032255;28;20092;-77
2022/08/29 05:32:08;;;;;;;3.10;1.83;;;;;;;;;;5031848;28;20555;-77
2022/08/29 05:34:37;;;;;;;2.55;2.00;;;;;;;;;;5032065;28;20433;-77
2022/08/29 05:37:05;;;;;;;4.05;2.05;;;;;;;;;;5031765;28;20092;-77
2022/08/29 05:39:33;;;;;;;4.55;2.20;;;;;;;;;;5032092;28;20046;-77
2022/08/29 05:41:59;;;;;;;4.35;1.95;;;;;;;;;;5032107;28;20084;-77
2022/08/29 05:44:26;;;;;;;6.07;2.20;;;;;;;;;;5031716;28;20041;-77
2022/08/29 05:46:59;;;;;;;2.67;1.95;;;;;;;;;;5031794;28;20053;-77
2022/08/29 05:49:26;;;;;;;4.47;1.80;;;;;;;;;;5031935;28;20049;-77
2022/08/29 05:51:54;;;;;;;4.63;2.17;;;;;;;;;;5032038;28;20089;-77
2022/08/29 05:54:21;;;;;;;3.08;1.88;;;;;;;;;;5031792;28;20045;-77
2022/08/29 05:56:48;;;;;;;3.38;1.90;;;;;;;;;;5030560;28;20041;-77
2022/08/29 05:59:17;;;;;;;3.28;2.10;;;;;;;;;;5031796;28;20045;-77
2022/08/29 06:01:45;;;;;;;4.60;2.13;;;;;;;;;;5031661;28;20072;-77
2022/08/29 06:04:12;;;;;;;3.65;1.77;;;;;;;;;;5031399;28;20099;-77
2022/08/29 06:06:39;;;;;;;4.53;1.77;;;;;;;;;;5031201;28;20092;-77
2022/08/29 06:09:06;;;;;;;3.92;2.20;;;;;;;;;;5031442;28;20559;-77
2022/08/29 06:11:33;;;;;;;4.78;1.83;;;;;;;;;;5031665;28;20157;-77
2022/08/29 06:14:00;;;;;;;3.30;1.80;;;;;;;;;;5031661;28;20107;-77
2022/08/29 06:16:27;;;;;;;;;;;;;;;;;;5031697;28;20071;-77
2022/08/29 06:18:54;;;;;;;3.28;1.70;;;;;;;;;;5031589;28;19969;-77
2022/08/29 06:21:21;;;;;;;4.82;1.77;;;;;;;;;;5031357;28;20053;-77
2022/08/29 06:23:47;;;;;;;1.63;1.50;;;;;;;;;;5031736;28;20497;-77
2022/08/29 06:26:14;;;;;;;3.20;1.80;;;;;;;;;;5031291;28;20563;-77
2022/08/29 06:28:44;;;;;;;3.60;2.15;;;;;;;;;;5030255;28;20099;-77
2022/08/29 06:31:13;;;;;;;2.17;1.48;;;;;;;;;;5031625;28;20076;-77
2022/08/29 06:33:39;;;;;;;2.13;1.60;;;;;;;;;;5031506;28;20148;-77
2022/08/29 06:36:06;;;;;;;3.15;1.83;;;;;;;;;;5031450;28;20045;-77
2022/08/29 06:38:34;;;;;;;2.40;1.33;;;;;;;;;;5031180;28;20504;-77
2022/08/29 06:41:01;;;;;;;2.85;1.73;;;;;;;;;;5031459;28;20095;-77
2022/08/29 06:43:28;;;;;;;3.47;1.80;;;;;;;;;;5031103;28;20045;-77
2022/08/29 06:45:54;;;;;;;3.53;1.90;;;;;;;;;;5031071;28;20552;-77
2022/08/29 06:48:21;;;;;;;2.85;1.63;;;;;;;;;;5031473;28;20060;-77
2022/08/29 06:50:54;;;;;;;4.97;1.95;;;;;;;;;;5031130;28;20053;-77
2022/08/29 06:53:20;;;;;;;1.90;1.65;;;;;;;;;;5031184;28;20085;-77
2022/08/29 06:56:02;;;;;;;3.95;1.60;;;;;;;;;;5031158;28;20140;-77
2022/08/29 06:58:30;;;;;;;3.40;1.70;;;;;;;;;;5031359;28;20053;-77
2022/08/29 07:00:57;;;;;;;3.40;1.83;;;;;;;;;;5029782;28;20046;-77
2022/08/29 07:03:23;;;;;;;3.75;1.80;;;;;;;;;;5030917;28;20049;-77
2022/08/29 07:05:53;;;;;;;1.93;1.30;;;;;;;;;;5030920;28;20045;-77
2022/08/29 07:08:19;;;;;;;3.33;1.75;;;;;;;;;;5030814;28;20049;-77
2022/08/29 07:10:46;;;;;;;3.67;1.70;;;;;;;;;;5030898;28;20079;-77
2022/08/29 07:13:12;;;;;;;2.55;1.55;;;;;;;;;;5030868;28;20089;-77
2022/08/29 07:15:39;;;;;;;2.70;1.50;;;;;;;;;;5031098;28;20091;-77
2022/08/29 07:18:05;;;;;;;2.03;1.30;;;;;;;;;;5032249;28;20346;-77
2022/08/29 07:20:32;;;;;;;2.53;1.60;;;;;;;;;;5034500;28;20576;-77
2022/08/29 07:22:58;;;;;;;2.47;1.60;;;;;;;;;;5034139;28;20121;-77
2022/08/29 07:25:26;;;;;;;2.97;1.38;;;;;;;;;;5034431;28;20050;-78
2022/08/29 07:27:52;;;;;;;;;;;;;;;;;;5035103;28;20088;-77
2022/08/29 07:30:19;;;;;;;3.80;1.40;;;;;;;;;;5034324;28;19925;-78
2022/08/29 07:32:46;;;;;;;2.17;1.48;;;;;;;;;;5034343;28;20779;-77
2022/08/29 07:35:12;;;;;;;3.38;1.73;;;;;;;;;;5034066;28;20552;-77
2022/08/29 07:37:43;;;;;;;3.13;1.40;;;;;;;;;;5034392;28;20041;-77
2022/08/29 07:40:16;;;;;;;2.63;1.50;;;;;;;;;;5034251;28;20120;-77
2022/08/29 07:42:42;;;;;;;1.92;1.38;;;;;;;;;;5034208;28;20097;-77
2022/08/29 07:45:10;;;;;;;2.97;1.60;;;;;;;;;;5034044;28;20049;-77
2022/08/29 07:47:36;;;;;;;;;;;;;;;;;;5034519;28;20053;-77
2022/08/29 07:50:08;;;;;;;2.60;1.60;;;;;;;;;;5033815;28;19929;-77
2022/08/29 07:52:35;;;;;;;1.52;1.42;;;;;;;;;;5034106;28;20520;-77
2022/08/29 07:55:02;;;;;;;2.70;1.40;;;;;;;;;;5033669;28;20524;-77
2022/08/29 07:57:29;;;;;;;;;;;;;;;;;;5034278;28;20104;-77
2022/08/29 07:59:55;;;;;;;2.65;1.45;;;;;;;;;;5033533;28;20333;-77
2022/08/29 08:02:21;;;;;;;1.93;1.20;;;;;;;;;;5033635;28;20486;-77
2022/08/29 08:04:48;;;;;;;3.93;1.20;;;;;;;;;;5033721;28;20548;-77
2022/08/29 08:07:17;;;;;;;1.75;1.33;;;;;;;;;;5033848;28;20289;-77
2022/08/29 08:09:44;;;;;;;2.00;1.25;;;;;;;;;;5033821;28;20108;-77
2022/08/29 08:12:11;;;;;;;3.37;1.43;;;;;;;;;;5033744;28;20054;-77
2022/08/29 08:14:37;;;;;;;2.92;1.40;;;;;;;;;;5033574;28;20338;-77
2022/08/29 08:17:04;;;;;;;1.63;1.07;;;;;;;;;;5033552;28;20099;-77
2022/08/29 08:19:30;;;;;;;2.10;1.13;;;;;;;;;;5032405;28;20133;-77
2022/08/29 08:21:58;;;;;;;1.50;1.23;;;;;;;;;;5033063;28;20088;-77
2022/08/29 08:24:24;;;;;;;1.30;1.20;;;;;;;;;;5033189;28;20282;-77
2022/08/29 08:26:51;;;;;;;4.63;1.23;;;;;;;;;;5033116;28;20050;-77
2022/08/29 08:29:17;;;;;;;2.00;1.27;;;;;;;;;;5032980;28;20076;-77
2022/08/29 08:31:45;;;;;;;2.35;1.10;;;;;;;;;;5033178;28;20551;-77
2022/08/29 08:34:14;;;;;;;1.88;1.10;;;;;;;;;;5033259;28;20095;-77
2022/08/29 08:36:42;;;;;;;2.20;1.25;;;;;;;;;;5032985;28;20409;-77
2022/08/29 08:39:08;;;;;;;3.50;1.10;;;;;;;;;;5033078;28;20088;-77
2022/08/29 08:41:48;;;;;;;3.60;1.40;;;;;;;;;;5032914;28;20046;-77
2022/08/29 08:44:33;;;;;;;1.75;1.10;;;;;;;;;;5032701;28;20076;-77
2022/08/29 08:47:04;;;;;;;2.13;1.07;;;;;;;;;;5032858;28;20085;-77
2022/08/29 08:49:31;;;;;;;2.17;1.05;;;;;;;;;;5032653;28;20489;-77
2022/08/29 08:51:58;;;;;;;1.48;0.70;;;;;;;;;;5032997;28;20053;-77
2022/08/29 08:54:32;;;;;;;1.40;0.90;;;;;;;;;;5032456;28;20493;-78
2022/08/29 08:57:09;;;;;;;2.55;1.00;;;;;;;;;;5032926;28;20053;-78
2022/08/29 08:59:40;;;;;;;1.85;0.95;;;;;;;;;;5032651;28;20064;-77
2022/08/29 09:02:13;;;;;;;1.35;0.73;;;;;;;;;;5031460;28;20053;-78
2022/08/29 09:04:56;;;;;;;1.73;0.93;;;;;;;;;;5032926;28;20049;-77
2022/08/29 09:07:29;;;;;;;2.72;1.00;;;;;;;;;;5032776;28;20099;-77
2022/08/29 09:09:55;;;;;;;1.90;1.00;;;;;;;;;;5032279;28;20057;-77
2022/08/29 09:12:31;;;;;;;2.58;0.70;;;;;;;;;;5032462;28;20500;-77
2022/08/29 09:15:00;;;;;;;2.88;0.73;;;;;;;;;;5032417;28;20445;-77
2022/08/29 09:17:31;;;;;;;2.08;1.13;;;;;;;;;;5032481;28;20042;-78
2022/08/29 09:20:07;;;;;;;0.90;0.60;;;;;;;;;;5032162;28;20045;-78
2022/08/29 09:22:34;;;;;;;2.20;0.75;;;;;;;;;;5032154;28;20053;-78
2022/08/29 09:25:02;;;;;;;1.42;0.68;;;;;;;;;;5029953;28;20057;-78
2022/08/29 09:27:30;;;;;;;2.05;0.70;;;;;;;;;;5017953;28;20087;-78
2022/08/29 09:30:01;;;;;;;1.00;0.65;;;;;;;;;;5031373;28;20053;-78
2022/08/29 09:32:27;;;;;;;1.35;0.73;;;;;;;;;;5031668;28;20107;-77
2022/08/29 09:34:54;;;;;;;0.63;0.50;;;;;;;;;;5031133;28;20444;-74
2022/08/29 09:37:34;;;;;;;0.60;0.60;;;;;;;;;;5030312;28;20541;-81
2022/08/29 09:40:01;;;;;;;;;;;;;;;;;;5031273;28;20045;-77
2022/08/29 09:42:29;;;;;;;2.28;0.90;;;;;;;;;;5030993;28;19936;-78
2022/08/29 09:44:57;;;;;;;1.58;0.60;;;;;;;;;;5031188;28;20104;-77
2022/08/29 09:47:26;;;;;;;0.47;0.47;;;;;;;;;;5030731;28;20069;-77
2022/08/29 09:50:15;;;;;;;2.22;0.60;;;;;;;;;;5030616;28;20493;-76
2022/08/29 09:52:54;;;;;;;1.58;0.70;;;;;;;;;;5030355;28;20045;-77
2022/08/29 09:55:23;;;;;;;1.52;0.80;;;;;;;;;;5030408;28;20045;-74
2022/08/29 09:57:56;;;;;;;1.98;0.88;;;;;;;;;;5030595;28;20064;-76
2022/08/29 10:00:24;;;;;;;0.88;0.65;;;;;;;;;;5031308;28;20088;-77
2022/08/29 10:02:53;;;;;;;1.27;0.68;;;;;;;;;;5027836;28;20049;-78
2022/08/29 10:05:33;;;;;;;1.23;0.60;;;;;;;;;;5030978;28;20084;-78
2022/08/29 10:08:01;;;;;;;0.68;0.57;;;;;;;;;;5030205;28;20160;-78
2022/08/29 10:10:29;;;;;;;1.02;0.50;;;;;;;;;;5029607;28;20080;-79
2022/08/29 10:13:00;;;;;;;1.27;0.50;;;;;;;;;;5031114;28;20053;-79
2022/08/29 10:15:29;;;;;;;3.33;0.77;;;;;;;;;;5031027;28;20115;-79
2022/08/29 10:18:19;;;;;;;1.73;0.50;;;;;;;;;;5029893;28;20148;-79
2022/08/29 10:20:54;;;;;;;0.60;0.40;;;;;;;;;;5031081;28;20045;-79
2022/08/29 10:23:30;;;;;;;1.50;0.45;;;;;;;;;;5031399;28;20424;-79
2022/08/29 10:26:02;;;;;;;1.17;0.40;;;;;;;;;;5030500;28;20467;-79
2022/08/29 10:28:38;;;;;;;1.38;0.40;;;;;;;;;;5030637;28;20559;-79
2022/08/29 10:31:11;;;;;;;0.85;0.40;;;;;;;;;;5030938;28;20107;-79
2022/08/29 10:33:57;;;;;;;0.50;0.30;;;;;;;;;;5031044;28;20062;-79
2022/08/29 10:36:30;;;;;;;0.47;0.30;;;;;;;;;;5029898;28;20085;-79
2022/08/29 10:38:59;;;;;;;0.50;0.40;;;;;;;;;;5030627;28;20049;-79
2022/08/29 10:41:44;;;;;;;2.00;0.63;;;;;;;;;;5030204;28;20054;-78
2022/08/29 10:44:20;;;;;;;1.13;0.30;;;;;;;;;;5029891;28;20529;-78
2022/08/29 10:47:10;;;;;;;0.70;0.30;;;;;;;;;;5029504;28;20478;-78
2022/08/29 10:49:49;;;;;;;2.55;0.45;;;;;;;;;;5029695;28;20049;-79
2022/08/29 10:52:21;;;;;;;1.15;0.47;;;;;;;;;;5030961;28;20089;-79
2022/08/29 10:55:02;;;;;;;1.10;0.40;;;;;;;;;;5033646;28;20410;-78
2022/08/29 10:57:41;;;;;;;3.08;0.38;;;;;;;;;;5035177;28;20088;-76
2022/08/29 11:00:09;;;;;;;2.95;0.40;;;;;;;;;;5034219;28;20077;-78
2022/08/29 11:02:39;;;;;;;1.27;0.35;;;;;;;;;;5031419;28;20116;-79
2022/08/29 11:05:12;;;;;;;1.27;0.45;;;;;;;;;;5033058;28;20443;-79
2022/08/29 11:07:42;;;;;;;1.85;0.30;;;;;;;;;;5034094;28;20497;-79
2022/08/29 11:10:14;;;;;;;0.60;0.40;;;;;;;;;;5034296;28;20100;-80
2022/08/29 11:12:58;;;;;;;3.83;0.50;;;;;;;;;;5034058;28;20421;-80
2022/08/29 11:15:33;;;;;;;1.15;0.30;;;;;;;;;;5034074;28;20469;-78
2022/08/29 11:18:16;;;;;;;1.50;0.50;;;;;;;;;;5033952;28;20144;-77
2022/08/29 11:20:50;;;;;;;0.40;0.30;;;;;;;;;;5034246;28;20100;-79
2022/08/29 11:23:27;;;;;;;0.40;0.30;;;;;;;;;;5034013;28;20049;-80
2022/08/29 11:25:55;;;;;;;0.45;0.20;;;;;;;;;;5033875;28;20084;-76
2022/08/29 11:28:27;;;;;;;1.38;0.60;;;;;;;;;;5033292;28;20092;-78
2022/08/29 11:30:57;;;;;;;1.00;0.40;;;;;;;;;;5031577;28;20053;-78
2022/08/29 11:33:32;;;;;;;0.57;0.50;;;;;;;;;;5031232;28;20049;-78
2022/08/29 11:36:18;;;;;;;1.17;0.45;;;;;;;;;;5032407;28;20049;-78
2022/08/29 11:38:50;;;;;;;1.60;0.70;;;;;;;;;;5032089;28;20054;-78
2022/08/29 11:41:17;;;;;;;0.70;0.50;;;;;;;;;;5033157;28;20049;-78
2022/08/29 11:44:08;;;;;;;1.00;0.50;;;;;;;;;;5032323;28;20140;-78
2022/08/29 11:46:36;;;;;;;1.88;0.80;;;;;;;;;;5033470;28;20054;-78
2022/08/29 11:49:21;;;;;;;1.05;0.80;;;;;;;;;;5033790;28;20053;-78
2022/08/29 11:51:51;;;;;;;1.57;0.93;;;;;;;;;;5033864;28;20486;-78
2022/08/29 11:54:21;;;;;;;2.35;0.70;;;;;;;;;;5034197;28;20103;-77
2022/08/29 11:57:10;;;;;;;0.77;0.77;;;;;;;;;;5033662;28;20046;-78
2022/08/29 11:59:43;;;;;;;1.27;0.70;;;;;;;;;;5033549;28;20042;-78
2022/08/29 12:02:29;;;;;;;1.55;0.98;;;;;;;;;;5033564;28;20049;-78
2022/08/29 12:05:04;;;;;;;1.63;0.80;;;;;;;;;;5033552;28;20107;-78
2022/08/29 12:07:33;;;;;;;1.23;0.60;;;;;;;;;;5033814;28;20541;-78
2022/08/29 12:10:02;;;;;;;0.52;0.47;;;;;;;;;;5033507;28;20049;-79
2022/08/29 12:12:49;;;;;;;1.75;0.90;;;;;;;;;;5033572;28;20501;-79
2022/08/29 12:15:25;;;;;;;0.80;0.50;;;;;;;;;;5032337;28;20095;-78
2022/08/29 12:17:53;;;;;;;0.98;0.80;;;;;;;;;;5033868;28;20079;-78
2022/08/29 12:20:29;;;;;;;1.02;0.85;;;;;;;;;;5033271;28;20053;-78
2022/08/29 12:22:58;;;;;;;0.85;0.68;;;;;;;;;;5033093;28;20057;-78
2022/08/29 12:25:41;;;;;;;0.60;0.55;;;;;;;;;;5033120;28;20041;-78
2022/08/29 12:28:07;;;;;;;2.13;0.70;;;;;;;;;;5033465;28;20049;-78
2022/08/29 12:30:39;;;;;;;1.33;1.10;;;;;;;;;;5033331;28;20045;-78
2022/08/29 12:33:25;;;;;;;2.25;1.00;;;;;;;;;;5033264;28;20394;-77
2022/08/29 12:35:59;;;;;;;1.63;0.98;;;;;;;;;;5032960;28;20095;-78
2022/08/29 12:38:29;;;;;;;1.15;1.02;;;;;;;;;;5032927;28;20049;-78
2022/08/29 12:41:15;;;;;;;1.88;0.80;;;;;;;;;;5032724;28;20049;-78
2022/08/29 12:43:43;;;;;;;1.73;1.13;;;;;;;;;;5032749;28;20532;-78
2022/08/29 12:46:28;;;;;;;1.90;1.35;;;;;;;;;;5033090;28;20138;-78
2022/08/29 12:49:02;;;;;;;1.73;1.10;;;;;;;;;;5032734;28;20092;-78
2022/08/29 12:51:39;;;;;;;2.40;1.20;;;;;;;;;;5032687;28;20805;-78
2022/08/29 12:54:06;;;;;;;1.52;1.30;;;;;;;;;;5032813;28;20061;-78
2022/08/29 12:56:33;;;;;;;2.03;1.83;;;;;;;;;;5032803;28;20096;-79
2022/08/29 12:59:02;;;;;;;2.17;1.85;;;;;;;;;;5032619;28;20053;-78
2022/08/29 13:01:29;;;;;;;2.15;1.30;;;;;;;;;;5032796;28;20041;-78
2022/08/29 13:04:02;;;;;;;2.47;1.20;;;;;;;;;;5032845;28;20058;-78
2022/08/29 13:06:28;;;;;;;1.58;1.48;;;;;;;;;;5032305;28;20115;-78
2022/08/29 13:08:55;;;;;;;1.30;1.20;;;;;;;;;;5032682;28;20057;-78
2022/08/29 13:11:23;;;;;;;1.85;1.13;;;;;;;;;;5032656;28;20089;-78
2022/08/29 13:13:50;;;;;;;1.55;1.25;;;;;;;;;;5032575;28;20107;-79
2022/08/29 13:16:25;;;;;;;1.52;1.40;;;;;;;;;;5031478;28;20084;-78
2022/08/29 13:18:51;;;;;;;2.25;1.80;;;;;;;;;;5032529;28;20045;-79
2022/08/29 13:21:35;;;;;;;2.70;1.85;;;;;;;;;;5032233;28;20133;-79
2022/08/29 13:24:07;;;;;;;1.90;1.80;;;;;;;;;;5032361;28;20088;-78
2022/08/29 13:26:35;;;;;;;2.03;1.83;;;;;;;;;;5032126;28;20486;-78
2022/08/29 13:29:07;;;;;;;2.28;1.50;;;;;;;;;;5030732;28;20049;-78
2022/08/29 13:31:35;;;;;;;1.98;1.88;;;;;;;;;;5030553;28;20509;-78
2022/08/29 13:34:13;;;;;;;2.08;1.60;;;;;;;;;;5031981;28;20049;-78
2022/08/29 13:37:01;;;;;;;2.47;1.90;;;;;;;;;;5030800;28;20077;-78
2022/08/29 13:39:30;;;;;;;2.35;1.90;;;;;;;;;;5031746;28;20099;-78
2022/08/29 13:41:56;;;;;;;2.05;1.85;;;;;;;;;;5032051;28;20387;-78
2022/08/29 13:44:24;;;;;;;2.50;1.88;;;;;;;;;;5031819;28;20042;-78
2022/08/29 13:46:51;;;;;;;1.70;1.48;;;;;;;;;;5030458;28;20084;-78
2022/08/29 13:49:45;;;;;;;2.25;1.52;;;;;;;;;;5030742;28;20083;-78
2022/08/29 13:52:12;;;;;;;1.67;1.55;;;;;;;;;;5031699;28;20053;-78
2022/08/29 13:54:42;;;;;;;1.55;1.30;;;;;;;;;;5031850;28;20452;-78
2022/08/29 13:57:13;;;;;;;1.92;1.35;;;;;;;;;;5031851;28;20049;-78
2022/08/29 13:59:39;;;;;;;1.55;1.10;;;;;;;;;;5031488;28;20551;-78
2022/08/29 14:02:06;;;;;;;;;;;;;;;;;;5031974;28;20448;-79
2022/08/29 14:04:34;;;;;;;1.23;1.13;;;;;;;;;;5031648;28;20396;-79
2022/08/29 14:07:06;;;;;;;2.38;1.42;;;;;;;;;;5031753;28;20061;-78
2022/08/29 14:09:37;;;;;;;1.92;1.27;;;;;;;;;;5031634;28;20434;-78
2022/08/29 14:12:04;;;;;;;2.80;1.45;;;;;;;;;;5031763;28;20080;-78
2022/08/29 14:14:31;;;;;;;1.30;1.08;;;;;;;;;;5031532;28;20084;-78
2022/08/29 14:16:57;;;;;;;1.38;1.15;;;;;;;;;;5031614;28;20079;-78
2022/08/29 14:19:24;;;;;;;1.00;1.00;;;;;;;;;;5031764;28;20391;-78
2022/08/29 14:21:51;;;;;;;1.58;1.13;;;;;;;;;;5031185;28;20088;-78
2022/08/29 14:24:18;;;;;;;;;;;;;;;;;;5031755;28;20088;-78
2022/08/29 14:26:44;;;;;;;2.33;1.15;;;;;;;;;;5033458;28;19925;-78
2022/08/29 14:29:11;;;;;;;1.98;1.10;;;;;;;;;;5035675;28;20045;-78
2022/08/29 14:31:37;;;;;;;1.50;1.40;;;;;;;;;;5035673;28;20050;-79
2022/08/29 14:34:04;;;;;;;1.42;1.17;;;;;;;;;;5035517;28;20068;-79
2022/08/29 14:36:30;;;;;;;1.48;1.10;;;;;;;;;;5035527;28;20107;-79
2022/08/29 14:38:58;;;;;;;1.20;1.00;;;;;;;;;;5035060;28;20046;-79
2022/08/29 14:41:25;;;;;;;1.20;1.10;;;;;;;;;;5035497;28;20080;-79
2022/08/29 14:43:53;;;;;;;1.23;1.13;;;;;;;;;;5035519;28;20387;-78
2022/08/29 14:46:19;;;;;;;1.58;1.20;;;;;;;;;;5035374;28;20130;-78
2022/08/29 14:48:46;;;;;;;1.38;1.20;;;;;;;;;;5035448;28;20084;-79
2022/08/29 14:51:12;;;;;;;;;;;;;;;;;;5035265;28;20057;-79
2022/08/29 14:53:39;;;;;;;1.25;0.95;;;;;;;;;;5035130;28;19921;-79
2022/08/29 14:56:23;;;;;;;1.27;1.00;;;;;;;;;;5035018;28;20045;-79
2022/08/29 14:59:10;;;;;;;1.48;0.95;;;;;;;;;;5034694;28;20497;-79
2022/08/29 15:01:37;;;;;;;;;;;;;;;;;;5035155;28;20406;-79
2022/08/29 15:04:03;;;;;;;0.93;0.90;;;;;;;;;;5034773;28;19935;-79
2022/08/29 15:06:30;;;;;;;1.33;1.00;;;;;;;;;;5034580;28;20405;-79